Aeroporto :
LOGIN :

Iscrizione | Disclaimer

   EN    FR    IT 

 










Sommario :    VFR   VFR Marginale   IFR   IFR Intensivo   IFR Molto Intensivo
Visibilità : 
Base nubi : 
>= 8 km
>= 3000ft
5 / 8 km
1000 / 3000 ft
1500m / 5 km
500 / 1000 ft
800 / 1500m
200 / 500 ft
< 800m
< 200 ft
Simboli :   Temporali  Nebbia  Neve Forte  Precipitazioni Forti  Vento > 20 kt
SIGMETs :   Varie  Temporali  Ghiacco  Turbolenza  Onda orograficha  Ceneri Vulcaniche







- Altitudine del aeroporto : 160 ft
- Codice IATA : FMO


EDDG - Münster Osnabrück Int.

ULTIMO METAR :
  • 241450Z 31007KT 260V350 9999 FEW034 11/M01 Q1025 NOSIG

METARs OBSOLETI :
  • 241420Z 29009KT 270V330 9999 FEW034 11/M00 Q1025 NOSIG
  • 241350Z 27009KT 250V340 9999 FEW036 11/02 Q1025 NOSIG
  • 241320Z 31007KT 260V020 9999 FEW036 10/00 Q1026 NOSIG
  • 241250Z 32008KT 260V350 9999 FEW036 10/00 Q1026 NOSIG
  • 241220Z 31007KT 280V350 CAVOK 09/01 Q1026 NOSIG
  • 241150Z 32006KT 270V020 CAVOK 09/02 Q1027 NOSIG

TAF TAF EDDG
Valido dal 24 a 12 ore il 25 a 12 ore UTC


241100Z 2412/2512 31007KT 9999 FEW040
BECMG 2419/2422 25008KT
BECMG 2501/2504 27013KT
BECMG 2504/2507 28015G25KT
PROB30
TEMPO 2505/2508 BKN013
TEMPO 2509/2512 30020G35KT SHRA BKN020CB
Nessun NOTAM noto per questo aeroporto.



MetMap, La meteo Aeronautica in un colpo d'occhio ! - Copyright ORBIFLY Dicembre 2007 - Disclaimer

ORBIFLY MET'MAP TEAM :

Programmazione e sviluppo : Alexandra Zaïnal
Concezione e sviluppo : Baudouin d'Aumeries
Co-Programmazione e sviluppo : Marc-Olivier Méhu
Supporto tecnico e logistico : Manuel Goepfert
Aiuto per la traduzione : Arnaldo La Scala

Contatto : metmap@orbifly.com




FONTI E CREDITI :

   NOAA